»·PEaware :: N225SC KSBD-KEMT

N225SC :: KSBD-KEMT

FLIGHT INFORMATION

Flight Status: Arrived
Operator: Privately registered:
United States
More flights under this callsign
Pilot: Caleb H. (26682)
Aircraft: CESSNA 172 SKYHAWK
(C172)
More flights by this aircraft type
Origin: KSBD San Bernardino Intl
United States
Destination: KEMT El Monte
United States
More flights between these airports :: More routes between these airports
Route:
File this flight plan on PilotEdge
Remarks: CAT 07 RATING
Altitude:
(Current/Filed)
7,000ft
Speed:
(Current/Filed)
110kts
Departed: 23-Oct-19 07:19 PM
Arrived: 23-Oct-19 07:45 PM
Distance/Time
Traveled:
131nm/0:26
Distance/Time
To Go:
Arrived

Flight Plot

Page will automatically refresh every two minutes.


Map Options




Map Legend


Flown Route
Filed Route
Departure Airport
Arrival Airport
Navaid (VOR, NDB)
Fix

Horizontal Profiles

Position Reports

Time Latitude Longitude Heading Altitude Ground
Speed
23-Oct-19 18:57 34.102166 -117.224730 93 1146ft 0kts
23-Oct-19 18:58 34.102166 -117.224730 93 1146ft 0kts
23-Oct-19 18:59 34.102166 -117.224730 93 1146ft 0kts
23-Oct-19 19:00 34.102166 -117.224730 93 1146ft 0kts
23-Oct-19 19:01 34.102166 -117.224730 93 1146ft 0kts
23-Oct-19 19:02 34.102166 -117.224730 93 1146ft 0kts
23-Oct-19 19:03 34.102166 -117.224730 93 1146ft 0kts
23-Oct-19 19:04 34.102166 -117.224730 93 1146ft 0kts
23-Oct-19 19:05 34.102166 -117.224730 93 1146ft 0kts
23-Oct-19 19:06 34.102166 -117.224730 93 1146ft 0kts
23-Oct-19 19:07 34.102166 -117.224730 93 1146ft 0kts
23-Oct-19 19:08 34.102166 -117.224730 93 1146ft 0kts
23-Oct-19 19:09 34.102147 -117.224643 115 1146ft 3kts
23-Oct-19 19:10 34.101606 -117.224550 15 1146ft 0kts
23-Oct-19 19:11 34.100772 -117.224714 294 1146ft 6kts
23-Oct-19 19:12 34.099636 -117.226518 89 1139ft 10kts
23-Oct-19 19:13 34.100832 -117.222401 70 1151ft 15kts
23-Oct-19 19:14 34.101280 -117.220002 136 1159ft 0kts
23-Oct-19 19:15 34.101018 -117.219846 161 1159ft 7kts
23-Oct-19 19:16 34.100710 -117.219720 163 1159ft 0kts
23-Oct-19 19:17 34.099650 -117.220107 247 1158ft 15kts
23-Oct-19 19:18 34.093319 -117.238372 261 1548ft 62kts
23-Oct-19 19:19 34.090694 -117.261089 268 2110ft 81kts
23-Oct-19 19:20 34.090371 -117.288063 281 2825ft 79kts
23-Oct-19 19:21 34.091011 -117.316242 274 3396ft 90kts
23-Oct-19 19:22 34.110473 -117.321551 355 3823ft 90kts
23-Oct-19 19:23 34.106723 -117.349850 254 4078ft 120kts
23-Oct-19 19:24 34.098274 -117.389973 257 3874ft 122kts
23-Oct-19 19:25 34.093092 -117.431670 265 3875ft 128kts
23-Oct-19 19:26 34.090871 -117.471553 269 3888ft 113kts
23-Oct-19 19:27 34.089563 -117.509279 269 3894ft 111kts
23-Oct-19 19:28 34.088499 -117.547599 269 3900ft 117kts
23-Oct-19 19:29 34.087694 -117.586994 269 3906ft 117kts
23-Oct-19 19:30 34.087110 -117.626614 269 3911ft 118kts
23-Oct-19 19:31 34.086769 -117.665970 279 3912ft 118kts
23-Oct-19 19:32 34.090709 -117.704447 268 3921ft 117kts
23-Oct-19 19:33 34.089859 -117.743994 268 3925ft 118kts
23-Oct-19 19:34 34.088993 -117.783050 268 4030ft 119kts
23-Oct-19 19:35 34.088098 -117.823665 268 4034ft 121kts
23-Oct-19 19:36 34.087296 -117.864249 268 3350ft 115kts
23-Oct-19 19:37 34.086916 -117.901703 268 2361ft 112kts
23-Oct-19 19:38 34.086940 -117.936453 268 2013ft 93kts
23-Oct-19 19:39 34.096422 -117.964141 303 2146ft 96kts
23-Oct-19 19:40 34.108447 -117.986064 289 2027ft 74kts
23-Oct-19 19:41 34.112195 -118.008510 267 1471ft 64kts
23-Oct-19 19:42 34.105027 -118.023904 206 770ft 52kts
23-Oct-19 19:43 34.091956 -118.031479 205 377ft 50kts
23-Oct-19 19:44 34.085408 -118.034732 108 287ft 4kts
23-Oct-19 19:45 34.085835 -118.033766 50 288ft 9kts
23-Oct-19 19:46 34.085890 -118.033705 29 288ft 0kts
23-Oct-19 19:47 34.085890 -118.033705 29 288ft 0kts
23-Oct-19 19:48 34.085890 -118.033705 29 288ft 0kts
23-Oct-19 19:49 34.085890 -118.033705 29 288ft 0kts
23-Oct-19 19:50 34.425813 -119.836719 189 9ft 0kts
23-Oct-19 19:51 34.425813 -119.836719 189 9ft 0kts
23-Oct-19 19:52 34.425813 -119.836719 189 9ft 0kts
23-Oct-19 19:53 34.425813 -119.836719 189 9ft 0kts
23-Oct-19 19:54 34.425813 -119.836719 189 9ft 0kts
23-Oct-19 19:55 34.425813 -119.836719 189 9ft 0kts
23-Oct-19 19:56 34.425813 -119.836719 189 9ft 0kts

Navigation Log

Ident Type
Flight plan parsing failed, navigation log unavailable